createdAt,value
2019-02-21T00:03:47.115Z,100927.54
2019-02-21T00:07:51.340Z,100930.09
2019-02-21T00:11:55.575Z,100928.23
2019-02-21T00:16:00.225Z,100926.47
2019-02-21T00:20:04.626Z,100932.06
2019-02-21T00:24:08.871Z,100934.55
2019-02-21T00:28:13.092Z,100939.20
2019-02-21T00:32:17.353Z,100933.78
2019-02-21T00:36:21.591Z,100932.28
2019-02-21T00:40:25.809Z,100926.28
2019-02-21T00:44:30.021Z,100934.65
2019-02-21T00:48:34.361Z,100942.84
2019-02-21T00:52:38.540Z,100933.56
2019-02-21T00:56:42.800Z,100936.05
2019-02-21T01:00:47.058Z,100938.27
2019-02-21T01:04:51.280Z,100937.65
2019-02-21T01:08:55.623Z,100940.62
2019-02-21T01:12:59.841Z,100938.44
2019-02-21T01:17:04.074Z,100942.09
2019-02-21T01:21:08.295Z,100946.30
2019-02-21T01:25:12.521Z,100948.84
2019-02-21T01:29:16.748Z,100949.20
2019-02-21T01:33:20.973Z,100943.03
2019-02-21T01:37:25.202Z,100940.11
2019-02-21T01:41:29.384Z,100933.87
2019-02-21T01:45:33.613Z,100943.66
2019-02-21T01:49:37.827Z,100939.50
2019-02-21T01:53:42.055Z,100938.87
2019-02-21T01:57:46.288Z,100938.27
2019-02-21T02:01:50.455Z,100941.39
2019-02-21T02:05:54.687Z,100934.72
2019-02-21T02:09:58.905Z,100942.98
2019-02-21T02:14:03.443Z,100942.34
2019-02-21T02:18:07.672Z,100939.95
2019-02-21T02:22:11.969Z,100937.09
2019-02-21T02:26:16.188Z,100942.94
2019-02-21T02:30:20.418Z,100940.93
2019-02-21T02:34:24.643Z,100949.81
2019-02-21T02:38:28.875Z,100947.26
2019-02-21T02:42:33.088Z,100957.44
2019-02-21T02:46:37.282Z,100959.90
2019-02-21T02:50:41.477Z,100957.64
2019-02-21T02:54:45.711Z,100953.23
2019-02-21T02:58:49.965Z,100961.20
2019-02-21T03:02:54.193Z,100952.53
2019-02-21T03:06:58.422Z,100956.80
2019-02-21T03:11:02.612Z,100954.89
2019-02-21T03:15:10.100Z,100960.56
2019-02-21T03:19:14.543Z,100965.39
2019-02-21T03:23:18.771Z,100962.14
2019-02-21T03:27:23.403Z,100965.02
2019-02-21T03:31:27.613Z,100961.61
2019-02-21T03:35:32.403Z,100970.73
2019-02-21T03:39:36.573Z,100974.16
2019-02-21T03:43:40.805Z,100974.57
2019-02-21T03:47:44.969Z,100976.22
2019-02-21T03:51:49.299Z,100982.67
2019-02-21T03:55:53.818Z,100984.44
2019-02-21T03:59:58.056Z,100986.09
2019-02-21T04:04:02.484Z,100978.11
2019-02-21T04:08:06.697Z,100978.38
2019-02-21T04:12:10.973Z,100977.34
2019-02-21T04:16:15.195Z,100971.59
2019-02-21T04:20:19.462Z,100968.56
2019-02-21T04:24:23.986Z,100972.02
2019-02-21T04:28:28.502Z,100975.09
2019-02-21T04:32:32.762Z,100975.02
2019-02-21T04:36:37.027Z,100970.48
2019-02-21T04:40:41.250Z,100969.03
2019-02-21T04:44:45.487Z,100963.74
2019-02-21T04:48:49.663Z,100961.13
2019-02-21T04:52:53.901Z,100952.51
2019-02-21T04:56:58.216Z,100954.77
2019-02-21T05:01:02.778Z,100953.96
2019-02-21T05:05:07.067Z,100957.53
2019-02-21T05:09:11.646Z,100961.09
2019-02-21T05:13:15.919Z,100953.77
2019-02-21T05:17:20.141Z,100955.06
2019-02-21T05:21:24.405Z,100958.48
2019-02-21T05:25:28.660Z,100957.72
2019-02-21T05:29:33.316Z,100960.89
2019-02-21T05:33:59.332Z,100956.64
2019-02-21T05:38:30.834Z,100967.14
2019-02-21T05:42:45.050Z,100961.05
2019-02-21T05:47:00.649Z,100964.39
2019-02-21T05:51:21.818Z,100971.67
2019-02-21T05:55:48.205Z,100972.33
2019-02-21T06:00:09.664Z,100981.06
2019-02-21T06:04:31.453Z,100984.02
2019-02-21T06:08:54.716Z,100980.92
2019-02-21T06:13:04.500Z,100980.84
2019-02-21T06:17:25.311Z,100986.94
2019-02-21T06:21:38.002Z,100986.82
2019-02-21T06:25:56.769Z,100993.91
2019-02-21T06:30:04.894Z,100999.13
2019-02-21T06:34:09.115Z,100997.90
2019-02-21T06:38:13.337Z,101002.31
2019-02-21T06:42:17.556Z,101007.10
2019-02-21T06:46:21.942Z,101007.98
2019-02-21T06:50:27.123Z,101007.59
2019-02-21T06:54:31.538Z,101011.09
2019-02-21T06:58:35.731Z,101008.41
2019-02-21T07:02:39.968Z,101014.12
2019-02-21T07:06:44.237Z,101020.63
2019-02-21T07:10:48.458Z,101019.72
2019-02-21T07:14:52.666Z,101020.70
2019-02-21T07:18:57.094Z,101021.75
2019-02-21T07:23:01.319Z,101021.56
2019-02-21T07:27:05.910Z,101021.95
2019-02-21T07:31:10.138Z,101018.27
2019-02-21T07:35:14.378Z,101022.21
2019-02-21T07:39:20.848Z,101026.69
2019-02-21T07:43:25.081Z,101025.27
2019-02-21T07:47:31.041Z,101025.68
2019-02-21T07:51:36.107Z,101025.47
2019-02-21T07:55:40.520Z,101020.87
2019-02-21T07:59:46.042Z,101013.72
2019-02-21T08:03:50.338Z,101014.25
2019-02-21T08:07:54.565Z,101019.68
2019-02-21T08:11:58.847Z,101022.50
2019-02-21T08:16:04.523Z,101010.46
2019-02-21T08:20:10.364Z,101016.98
2019-02-21T08:24:14.904Z,101011.52
2019-02-21T08:28:19.112Z,101002.64
2019-02-21T08:32:28.886Z,101008.95
2019-02-21T08:36:33.359Z,100998.75
2019-02-21T08:40:37.567Z,101005.16
2019-02-21T08:44:41.801Z,101002.89
2019-02-21T08:48:47.876Z,101001.34
2019-02-21T08:52:51.933Z,100999.23
2019-02-21T08:56:56.554Z,100999.23
2019-02-21T09:01:01.546Z,100998.80
2019-02-21T09:05:06.534Z,100997.97
2019-02-21T09:09:10.789Z,100995.40
2019-02-21T09:13:17.089Z,100996.41
2019-02-21T09:17:21.267Z,101001.25
2019-02-21T09:21:25.501Z,101000.05
2019-02-21T09:25:31.331Z,100993.53
2019-02-21T09:29:35.995Z,100994.47
2019-02-21T09:33:40.505Z,100990.03
2019-02-21T09:37:45.259Z,100992.23
2019-02-21T09:41:49.474Z,100995.77
2019-02-21T09:45:54.198Z,100992.66
2019-02-21T09:49:58.432Z,100993.40
2019-02-21T09:54:03.366Z,100988.78
2019-02-21T09:58:07.890Z,100996.52
2019-02-21T10:02:12.633Z,101001.27
2019-02-21T10:06:17.524Z,101003.54
2019-02-21T10:10:21.780Z,100992.45
2019-02-21T10:14:26.309Z,100986.66
2019-02-21T10:18:31.923Z,100980.70
2019-02-21T10:22:38.028Z,100972.97
2019-02-21T10:26:42.696Z,100974.94
2019-02-21T10:30:46.975Z,100962.90
2019-02-21T10:34:52.966Z,100964.86
2019-02-21T10:38:57.509Z,100967.32
2019-02-21T10:43:01.737Z,100967.20
2019-02-21T10:47:06.470Z,100957.07
2019-02-21T10:51:11.104Z,100951.69
2019-02-21T10:55:16.091Z,100936.93
2019-02-21T10:59:20.325Z,100937.10
2019-02-21T11:03:24.505Z,100924.94
2019-02-21T11:07:28.724Z,100918.51
2019-02-21T11:11:32.957Z,100915.94
2019-02-21T11:15:37.198Z,100910.84
2019-02-21T11:19:41.794Z,100908.34
2019-02-21T11:23:46.014Z,100888.85
2019-02-21T11:27:50.278Z,100888.85
2019-02-21T11:31:54.507Z,100880.59
2019-02-21T11:35:58.767Z,100883.34
2019-02-21T11:40:05.481Z,100879.77
2019-02-21T11:44:08.887Z,100875.34
2019-02-21T11:48:13.111Z,100869.23
2019-02-21T11:52:17.413Z,100869.23
2019-02-21T11:56:21.878Z,100857.86
2019-02-21T12:00:26.753Z,100854.48
2019-02-21T12:04:30.935Z,100853.13
2019-02-21T12:08:35.230Z,100841.44
2019-02-21T12:12:39.718Z,100841.44
2019-02-21T12:16:43.952Z,100849.88
2019-02-21T12:20:48.277Z,100840.53
2019-02-21T12:24:52.558Z,100840.41
2019-02-21T12:28:57.196Z,100837.41
2019-02-21T12:33:01.502Z,100837.41
2019-02-21T12:37:05.744Z,100832.09
2019-02-21T12:41:09.978Z,100832.09
2019-02-21T12:45:15.899Z,100826.17
2019-02-21T12:49:20.504Z,100826.17
2019-02-21T12:53:24.704Z,100821.46
2019-02-21T12:57:28.902Z,100803.59
2019-02-21T13:01:33.278Z,100803.59
2019-02-21T13:05:41.059Z,100808.09
2019-02-21T13:09:43.493Z,100797.13
2019-02-21T13:13:47.670Z,100799.78
2019-02-21T13:17:51.912Z,100790.61
2019-02-21T13:21:56.099Z,100782.72
2019-02-21T13:26:00.338Z,100780.47
2019-02-21T13:30:05.294Z,100779.59
2019-02-21T13:34:09.519Z,100776.95
2019-02-21T13:38:13.951Z,100767.30
2019-02-21T13:42:18.187Z,100759.44
2019-02-21T13:46:22.427Z,100756.04
2019-02-21T13:50:26.810Z,100766.22
2019-02-21T13:54:31.029Z,100765.80
2019-02-21T13:58:35.620Z,100757.45
2019-02-21T14:02:39.812Z,100758.81
2019-02-21T14:06:44.048Z,100751.34
2019-02-21T14:10:48.263Z,100756.21
2019-02-21T14:14:52.480Z,100742.13
2019-02-21T14:18:56.660Z,100744.83
2019-02-21T14:23:02.196Z,100742.64
2019-02-21T14:27:08.968Z,100735.61
2019-02-21T14:31:13.516Z,100737.81
2019-02-21T14:35:17.776Z,100736.04
2019-02-21T14:39:22.021Z,100742.65
2019-02-21T14:43:26.270Z,100739.99
2019-02-21T14:47:30.933Z,100734.68
2019-02-21T14:51:35.136Z,100738.17
2019-02-21T14:55:39.803Z,100736.42
2019-02-21T14:59:44.949Z,100729.33
2019-02-21T15:03:49.238Z,100728.89
2019-02-21T15:07:53.589Z,100728.40
2019-02-21T15:11:57.820Z,100723.98
2019-02-21T15:16:02.047Z,100726.62
2019-02-21T15:20:09.284Z,100720.88
2019-02-21T15:24:13.688Z,100722.17
2019-02-21T15:28:17.908Z,100721.27
2019-02-21T15:32:22.175Z,100723.91
2019-02-21T15:36:37.654Z,100718.58
2019-02-21T15:40:32.411Z,100723.81
2019-02-21T15:44:37.337Z,100721.13
2019-02-21T15:48:41.555Z,100718.40
2019-02-21T15:52:45.960Z,100718.83
2019-02-21T15:56:50.930Z,100723.19
2019-02-21T16:00:55.689Z,100723.11
2019-02-21T16:04:59.935Z,100724.84
2019-02-21T16:09:15.865Z,100715.97
2019-02-21T16:13:10.956Z,100719.47
2019-02-21T16:17:15.578Z,100721.61
2019-02-21T16:21:19.810Z,100715.39
2019-02-21T16:25:25.148Z,100726.78
2019-02-21T16:29:29.457Z,100721.91
2019-02-21T16:33:33.706Z,100722.33
2019-02-21T16:37:37.894Z,100734.62
2019-02-21T16:41:44.270Z,100734.58
2019-02-21T16:45:53.641Z,100733.21
2019-02-21T16:49:54.967Z,100732.77
2019-02-21T16:53:59.351Z,100742.84
2019-02-21T16:58:03.650Z,100745.02
2019-02-21T17:02:07.509Z,100742.30
2019-02-21T17:06:11.700Z,100741.81
2019-02-21T17:10:16.181Z,100743.95
2019-02-21T17:14:20.449Z,100753.17
2019-02-21T17:18:25.053Z,100753.55
2019-02-21T17:22:29.344Z,100744.22
2019-02-21T17:26:33.680Z,100744.22
2019-02-21T17:30:38.133Z,100749.95
2019-02-21T17:34:42.706Z,100741.11
2019-02-21T17:38:46.999Z,100745.45
2019-02-21T17:42:51.232Z,100745.45
2019-02-21T17:46:55.423Z,100747.17
2019-02-21T17:50:59.992Z,100752.44
2019-02-21T17:55:04.867Z,100761.67
2019-02-21T17:59:09.124Z,100782.67
2019-02-21T18:03:13.310Z,100782.67
2019-02-21T18:07:17.554Z,100777.38
2019-02-21T18:11:21.846Z,100786.58
2019-02-21T18:15:26.204Z,100790.08
2019-02-21T18:19:30.391Z,100785.14
2019-02-21T18:23:34.609Z,100768.73
2019-02-21T18:27:38.843Z,100771.05
2019-02-21T18:31:43.079Z,100762.20
2019-02-21T18:35:47.324Z,100762.20
2019-02-21T18:39:51.565Z,100748.91
2019-02-21T18:43:55.754Z,100764.28
2019-02-21T18:48:00.000Z,100753.17
2019-02-21T18:52:04.446Z,100751.91
2019-02-21T18:56:08.879Z,100746.16
2019-02-21T19:00:14.778Z,100746.16
2019-02-21T19:04:19.384Z,100736.45
2019-02-21T19:08:23.946Z,100736.45
2019-02-21T19:12:28.188Z,100731.59
2019-02-21T19:16:32.417Z,100731.53
2019-02-21T19:20:36.708Z,100725.77
2019-02-21T19:24:41.149Z,100725.77
2019-02-21T19:28:45.716Z,100716.50
2019-02-21T19:32:50.055Z,100716.50
2019-02-21T19:36:54.438Z,100720.81
2019-02-21T19:40:59.013Z,100717.27
2019-02-21T19:45:03.426Z,100706.64
2019-02-21T19:49:07.971Z,100703.85
2019-02-21T19:53:15.059Z,100703.85
2019-02-21T19:57:19.534Z,100697.70
2019-02-21T20:01:24.278Z,100698.09
2019-02-21T20:05:29.116Z,100696.77
2019-02-21T20:09:33.634Z,100699.32
2019-02-21T20:13:40.723Z,100707.14
2019-02-21T20:17:45.214Z,100707.14
2019-02-21T20:21:50.589Z,100695.20
2019-02-21T20:25:55.009Z,100696.20
2019-02-21T20:29:59.453Z,100696.60
2019-02-21T20:34:04.161Z,100695.78
2019-02-21T20:38:08.684Z,100689.22
2019-02-21T20:42:13.116Z,100683.95
2019-02-21T20:46:17.697Z,100685.73
2019-02-21T20:50:22.394Z,100686.12
2019-02-21T20:54:26.711Z,100681.67
2019-02-21T20:58:30.973Z,100677.66
2019-02-21T21:02:35.522Z,100676.77
2019-02-21T21:06:40.157Z,100677.20
2019-02-21T21:10:44.406Z,100677.14
2019-02-21T21:14:48.666Z,100674.92
2019-02-21T21:18:52.989Z,100678.84
2019-02-21T21:22:57.303Z,100682.80
2019-02-21T21:27:01.574Z,100678.84
2019-02-21T21:31:05.855Z,100682.79
2019-02-21T21:35:11.616Z,100689.41
2019-02-21T21:39:16.369Z,100695.55
2019-02-21T21:43:20.616Z,100699.53
2019-02-21T21:47:24.849Z,100694.73
2019-02-21T21:51:29.100Z,100690.72
2019-02-21T21:55:33.324Z,100689.32
2019-02-21T21:59:37.587Z,100700.61
2019-02-21T22:03:42.044Z,100694.82
2019-02-21T22:07:49.060Z,100694.33
2019-02-21T22:11:52.645Z,100697.24
2019-02-21T22:15:56.841Z,100697.17
2019-02-21T22:20:03.146Z,100691.37
2019-02-21T22:24:07.504Z,100687.91
2019-02-21T22:28:11.752Z,100693.98
2019-02-21T22:32:17.140Z,100693.14
2019-02-21T22:36:21.397Z,100693.55
2019-02-21T22:40:25.808Z,100690.44
2019-02-21T22:44:30.076Z,100704.02
2019-02-21T22:48:34.416Z,100694.73
2019-02-21T22:52:39.055Z,100693.42
2019-02-21T22:56:43.367Z,100696.45
2019-02-21T23:01:15.762Z,100692.00
2019-02-21T23:05:59.653Z,100691.06
2019-02-21T23:10:05.575Z,100686.27
2019-02-21T23:14:09.959Z,100683.64
2019-02-21T23:18:14.138Z,100685.42
2019-02-21T23:22:18.520Z,100667.37
2019-02-21T23:26:22.920Z,100670.83
2019-02-21T23:30:27.263Z,100671.23
2019-02-21T23:34:36.657Z,100675.62
2019-02-21T23:38:40.897Z,100661.95
2019-02-21T23:42:45.123Z,100666.31
2019-02-21T23:46:49.356Z,100669.75
2019-02-21T23:50:53.836Z,100666.71
2019-02-21T23:54:58.233Z,100661.05
2019-02-21T23:59:02.598Z,100653.18
